Time;durP1;ratioP1;P1;durP2;ratioP2;P2;SDS_P1;SDS_P2;PMS_P1;PMS_P2;Temp;Humidity;BMP_temperature;BMP_pressure;BME280_temperature;BME280_humidity;BME280_pressure;Samples;Min_cycle;Max_cycle;Signal;HPM_P1;HPM_P2
2021/08/01 00:01:36;;;;;;;7.72;7.03;;;20.40;99.90;;;;;;5062469;28;20064;-68
2021/08/01 00:04:01;;;;;;;9.85;7.57;;;20.40;99.90;;;;;;5049507;28;20053;-68
2021/08/01 00:06:27;;;;;;;8.25;7.45;;;20.40;99.90;;;;;;5053061;28;20037;-69
2021/08/01 00:08:53;;;;;;;7.85;6.85;;;20.50;99.90;;;;;;5061023;28;20032;-69
2021/08/01 00:11:19;;;;;;;8.27;7.25;;;20.40;99.90;;;;;;5063262;28;20029;-69
2021/08/01 00:13:45;;;;;;;8.38;7.43;;;20.40;99.90;;;;;;5046161;28;20389;-69
2021/08/01 00:16:11;;;;;;;9.43;7.88;;;20.40;99.90;;;;;;5049083;28;20116;-69
2021/08/01 00:18:36;;;;;;;7.63;6.68;;;20.40;99.90;;;;;;5051439;28;20036;-68
2021/08/01 00:21:03;;;;;;;8.40;7.50;;;20.50;99.90;;;;;;5054081;28;20081;-69
2021/08/01 00:23:29;;;;;;;12.38;8.55;;;20.40;99.90;;;;;;5050417;28;20041;-69
2021/08/01 00:25:57;;;;;;;9.30;8.38;;;20.40;99.90;;;;;;5051168;28;20025;-69
2021/08/01 00:28:22;;;;;;;11.48;8.52;;;20.40;99.90;;;;;;5052167;28;20021;-69
2021/08/01 00:30:48;;;;;;;11.00;9.63;;;20.30;99.90;;;;;;5054518;28;20055;-68
2021/08/01 00:33:14;;;;;;;11.93;9.32;;;20.30;99.90;;;;;;5051866;28;21249;-68
2021/08/01 00:35:39;;;;;;;10.27;9.07;;;20.20;99.90;;;;;;5043312;28;20512;-68
2021/08/01 00:38:07;;;;;;;11.00;8.32;;;20.30;99.90;;;;;;5047921;28;20511;-68
2021/08/01 00:40:32;;;;;;;9.85;8.70;;;20.20;99.90;;;;;;5050980;28;20036;-70
2021/08/01 00:42:58;;;;;;;10.95;8.40;;;20.20;99.90;;;;;;5049296;28;20021;-69
2021/08/01 00:45:24;;;;;;;12.40;8.15;;;20.20;99.90;;;;;;5038238;28;20631;-68
2021/08/01 00:47:49;;;;;;;9.63;8.20;;;20.20;99.90;;;;;;5047404;28;20036;-69
2021/08/01 00:50:15;;;;;;;9.23;7.47;;;20.20;99.90;;;;;;5049846;28;20096;-69
2021/08/01 00:52:42;;;;;;;10.30;7.10;;;20.10;99.90;;;;;;5048495;28;20035;-68
2021/08/01 00:55:10;;;;;;;7.32;6.55;;;20.20;99.90;;;;;;5050696;28;20029;-69
2021/08/01 00:57:36;;;;;;;8.15;7.28;;;20.10;99.90;;;;;;5048311;28;20112;-69
2021/08/01 01:00:04;;;;;;;9.80;6.90;;;20.10;99.90;;;;;;5052731;28;20377;-68
2021/08/01 01:02:41;;;;;;;9.98;6.95;;;20.10;99.90;;;;;;5043740;28;20033;-68
2021/08/01 01:05:21;;;;;;;6.65;6.05;;;20.10;99.90;;;;;;5052143;28;20469;-68
2021/08/01 01:07:50;;;;;;;9.55;7.00;;;20.10;99.90;;;;;;5049367;28;20029;-69
2021/08/01 01:10:19;;;;;;;7.55;5.93;;;20.20;99.90;;;;;;5052148;28;20033;-68
2021/08/01 01:13:03;;;;;;;7.93;7.13;;;20.10;99.90;;;;;;5051097;28;20052;-69
2021/08/01 01:15:30;;;;;;;15.18;6.57;;;20.10;99.90;;;;;;5049102;28;20041;-69
2021/08/01 01:18:03;;;;;;;8.55;6.25;;;20.00;99.90;;;;;;5048851;28;20100;-70
2021/08/01 01:20:37;;;;;;;9.23;6.75;;;20.00;99.90;;;;;;5055612;28;20457;-70
2021/08/01 01:23:26;;;;;;;8.02;6.60;;;19.90;99.90;;;;;;5047920;28;20669;-69
2021/08/01 01:26:12;;;;;;;9.05;7.10;;;19.90;99.90;;;;;;5046212;28;20689;-70
2021/08/01 01:28:55;;;;;;;7.70;6.95;;;19.90;99.90;;;;;;5051739;28;20052;-69
2021/08/01 01:31:39;;;;;;;8.90;7.07;;;19.90;99.90;;;;;;5052351;28;20075;-70
2021/08/01 01:34:25;;;;;;;9.00;7.18;;;19.90;99.90;;;;;;5046665;28;20107;-68
2021/08/01 01:36:53;;;;;;;12.30;7.28;;;19.80;99.90;;;;;;5052624;28;20036;-70
2021/08/01 01:39:22;;;;;;;10.52;6.53;;;19.80;99.90;;;;;;5048366;28;20104;-70
2021/08/01 01:41:50;;;;;;;8.82;7.78;;;19.80;99.90;;;;;;5051879;28;20541;-71
2021/08/01 01:44:18;;;;;;;8.20;6.05;;;19.80;99.90;;;;;;5050594;28;20415;-70
2021/08/01 01:46:45;;;;;;;9.13;7.63;;;19.80;99.90;;;;;;5050765;28;20037;-72
2021/08/01 01:49:13;;;;;;;9.20;6.90;;;19.70;99.90;;;;;;5045949;28;20033;-72
2021/08/01 01:51:39;;;;;;;8.82;7.22;;;19.60;99.90;;;;;;5048379;28;20476;-72
2021/08/01 01:54:09;;;;;;;9.75;7.05;;;19.60;99.90;;;;;;5052123;28;20071;-71
2021/08/01 01:56:36;;;;;;;8.57;7.40;;;19.60;99.90;;;;;;5056583;28;20062;-70
2021/08/01 01:59:03;;;;;;;9.00;7.10;;;19.50;99.90;;;;;;5052681;28;20110;-71
2021/08/01 02:01:29;;;;;;;11.18;7.25;;;19.50;99.90;;;;;;5053589;28;20497;-70
2021/08/01 02:03:55;;;;;;;8.18;6.68;;;19.50;99.90;;;;;;5055613;28;20044;-71
2021/08/01 02:06:21;;;;;;;10.25;7.35;;;19.50;99.90;;;;;;5052886;28;20071;-73
2021/08/01 02:09:24;;;;;;;7.47;6.70;;;19.50;99.90;;;;;;5050598;28;20040;-74
2021/08/01 02:12:03;;;;;;;8.60;7.10;;;19.40;99.90;;;;;;5055810;28;20039;-70
2021/08/01 02:14:40;;;;;;;8.45;7.30;;;19.40;99.90;;;;;;5051207;28;20017;-69
2021/08/01 02:17:11;;;;;;;10.15;7.20;;;19.40;99.90;;;;;;5049593;28;20488;-69
2021/08/01 02:19:39;;;;;;;9.07;7.07;;;19.40;99.90;;;;;;5049666;28;20013;-69
2021/08/01 02:22:06;;;;;;;8.82;7.93;;;19.30;99.90;;;;;;5052943;28;20385;-69
2021/08/01 02:24:34;;;;;;;10.32;8.07;;;19.30;99.90;;;;;;5055567;28;20113;-70
2021/08/01 02:27:03;;;;;;;9.25;6.57;;;19.30;99.90;;;;;;5054128;28;20561;-69
2021/08/01 02:29:30;;;;;;;10.68;7.50;;;19.10;99.90;;;;;;5052698;28;20021;-69
2021/08/01 02:31:56;;;;;;;11.05;7.32;;;19.20;99.90;;;;;;5054373;28;20071;-70
2021/08/01 02:34:24;;;;;;;9.82;6.90;;;19.20;99.90;;;;;;5053159;28;20052;-73
2021/08/01 02:36:51;;;;;;;11.95;7.00;;;19.10;99.90;;;;;;5052350;28;20028;-71
2021/08/01 02:39:18;;;;;;;12.48;7.28;;;19.10;99.90;;;;;;5051336;28;20049;-73
2021/08/01 02:41:45;;;;;;;12.27;7.13;;;19.10;99.90;;;;;;5050053;28;20026;-72
2021/08/01 02:44:20;;;;;;;12.50;7.85;;;19.00;99.90;;;;;;5047043;28;20469;-72
2021/08/01 02:46:47;;;;;;;10.05;7.57;;;19.00;99.90;;;;;;5054857;28;20034;-73
2021/08/01 02:49:22;;;;;;;13.57;7.80;;;19.10;99.90;;;;;;5055411;28;20097;-73
2021/08/01 02:51:51;;;;;;;12.02;7.57;;;19.00;99.90;;;;;;5048136;28;20026;-74
2021/08/01 02:54:18;;;;;;;11.73;7.35;;;19.00;99.90;;;;;;5053327;28;20040;-72
2021/08/01 02:56:45;;;;;;;9.07;7.50;;;19.00;99.90;;;;;;5054899;28;20097;-72
2021/08/01 02:59:12;;;;;;;10.60;7.25;;;19.00;99.90;;;;;;5054071;28;20055;-73
2021/08/01 03:01:39;;;;;;;10.98;8.15;;;18.90;99.90;;;;;;5055995;28;20043;-73
2021/08/01 03:04:06;;;;;;;13.05;7.68;;;18.90;99.90;;;;;;5054612;28;20017;-72
2021/08/01 03:06:34;;;;;;;9.63;7.20;;;18.90;99.90;;;;;;5049784;28;20028;-73
2021/08/01 03:09:04;;;;;;;12.68;7.10;;;18.90;99.90;;;;;;5054221;28;20111;-73
2021/08/01 03:11:34;;;;;;;11.95;7.63;;;18.90;99.90;;;;;;5066142;28;20032;-73
2021/08/01 03:14:01;;;;;;;12.30;7.32;;;18.90;99.90;;;;;;5055507;28;20031;-73
2021/08/01 03:16:27;;;;;;;11.68;7.82;;;18.90;99.90;;;;;;5064493;28;20037;-73
2021/08/01 03:18:52;;;;;;;8.40;6.68;;;18.80;99.90;;;;;;5062631;28;20036;-73
2021/08/01 03:21:18;;;;;;;10.52;6.95;;;18.80;99.90;;;;;;5050142;28;20033;-73
2021/08/01 03:23:44;;;;;;;14.27;8.40;;;18.80;99.90;;;;;;5062185;28;20457;-72
2021/08/01 03:26:09;;;;;;;16.13;8.88;;;18.70;99.90;;;;;;5061395;28;20508;-73
2021/08/01 03:28:35;;;;;;;14.60;8.20;;;18.70;99.90;;;;;;5057299;28;20043;-72
2021/08/01 03:31:01;;;;;;;15.75;7.93;;;18.70;99.90;;;;;;5055180;28;20037;-73
2021/08/01 03:33:26;;;;;;;12.10;7.75;;;18.70;99.90;;;;;;5057132;28;20358;-71
2021/08/01 03:35:52;;;;;;;13.07;8.10;;;18.80;99.90;;;;;;5056420;28;20036;-73
2021/08/01 03:38:18;;;;;;;20.13;9.35;;;18.70;99.90;;;;;;5048239;28;20028;-73
2021/08/01 03:40:43;;;;;;;16.75;9.70;;;18.70;99.90;;;;;;5058085;28;20032;-74
2021/08/01 03:43:09;;;;;;;13.77;9.25;;;18.80;99.90;;;;;;5069541;28;20012;-73
2021/08/01 03:45:35;;;;;;;16.65;10.48;;;18.70;99.90;;;;;;5047094;28;20025;-73
2021/08/01 03:48:00;;;;;;;15.40;9.43;;;18.70;99.90;;;;;;5055403;28;20033;-69
2021/08/01 03:50:26;;;;;;;15.68;10.35;;;18.70;99.90;;;;;;5046912;28;20026;-69
2021/08/01 03:52:52;;;;;;;19.35;10.50;;;18.70;99.90;;;;;;5050884;28;20037;-69
2021/08/01 03:55:17;;;;;;;17.95;10.93;;;18.70;99.90;;;;;;5062753;28;20079;-69
2021/08/01 03:57:44;;;;;;;20.00;10.55;;;18.60;99.90;;;;;;5053900;28;20100;-69
2021/08/01 04:00:10;;;;;;;16.27;9.68;;;18.60;99.90;;;;;;5051383;28;20059;-69
2021/08/01 04:02:37;;;;;;;18.98;10.65;;;18.60;99.90;;;;;;5057099;28;20028;-70
2021/08/01 04:05:04;;;;;;;17.77;9.48;;;18.70;99.90;;;;;;5052293;28;20028;-71
2021/08/01 04:07:30;;;;;;;17.75;9.73;;;18.60;99.90;;;;;;5055719;28;20889;-70
2021/08/01 04:09:55;;;;;;;20.63;11.23;;;18.50;99.90;;;;;;5047604;28;20100;-69
2021/08/01 04:12:22;;;;;;;18.05;10.68;;;18.60;99.90;;;;;;5061395;28;20093;-70
2021/08/01 04:14:47;;;;;;;19.42;10.35;;;18.50;99.90;;;;;;5059043;28;20413;-70
2021/08/01 04:17:13;;;;;;;20.60;9.70;;;18.50;99.90;;;;;;5056652;28;20036;-69
2021/08/01 04:19:39;;;;;;;20.38;9.90;;;18.40;99.90;;;;;;5062403;28;20029;-69
2021/08/01 04:22:05;;;;;;;20.02;10.35;;;18.50;99.90;;;;;;5060060;28;20028;-70
2021/08/01 04:24:31;;;;;;;14.75;10.90;;;18.50;99.90;;;;;;5049657;28;20107;-69
2021/08/01 04:26:56;;;;;;;14.52;10.27;;;18.50;99.90;;;;;;5064528;28;20016;-69
2021/08/01 04:29:22;;;;;;;21.55;11.18;;;18.60;99.90;;;;;;5054139;28;20032;-70
2021/08/01 04:31:48;;;;;;;23.42;12.32;;;18.40;99.90;;;;;;5050487;28;20025;-70
2021/08/01 04:34:16;;;;;;;23.05;12.20;;;18.50;99.90;;;;;;5059339;28;20480;-70
2021/08/01 04:36:41;;;;;;;24.63;13.57;;;18.40;99.90;;;;;;5051738;28;20734;-70
2021/08/01 04:39:07;;;;;;;24.55;13.18;;;18.40;99.90;;;;;;5053662;28;20100;-70
2021/08/01 04:41:33;;;;;;;23.75;13.35;;;18.30;99.90;;;;;;5065372;28;20059;-69
2021/08/01 04:43:59;;;;;;;26.80;15.05;;;18.40;99.90;;;;;;5058436;28;20533;-69
2021/08/01 04:46:25;;;;;;;27.38;15.10;;;18.40;99.90;;;;;;5054206;28;20028;-69
2021/08/01 04:48:50;;;;;;;27.98;15.30;;;18.40;99.90;;;;;;5058662;28;20020;-69
2021/08/01 04:51:16;;;;;;;25.33;15.55;;;18.50;99.90;;;;;;5063402;28;20025;-69
2021/08/01 04:53:41;;;;;;;28.48;14.82;;;18.50;99.90;;;;;;5046116;28;20412;-69
2021/08/01 04:56:08;;;;;;;29.75;15.95;;;18.40;99.90;;;;;;5059458;28;20040;-69
2021/08/01 04:58:34;;;;;;;31.65;17.10;;;18.50;99.90;;;;;;5054217;28;20104;-69
2021/08/01 05:00:59;;;;;;;29.08;16.75;;;18.50;99.90;;;;;;5049870;28;20450;-69
2021/08/01 05:03:25;;;;;;;28.38;17.10;;;18.60;99.90;;;;;;5053577;28;20025;-68
2021/08/01 05:05:51;;;;;;;33.05;17.63;;;18.60;99.90;;;;;;5056631;28;20452;-69
2021/08/01 05:08:16;;;;;;;28.90;17.88;;;18.60;99.90;;;;;;5049772;28;20025;-69
2021/08/01 05:10:42;;;;;;;34.65;18.00;;;18.70;99.90;;;;;;5062143;28;20095;-69
2021/08/01 05:13:08;;;;;;;28.40;18.52;;;18.60;99.90;;;;;;5058860;28;20051;-69
2021/08/01 05:15:34;;;;;;;31.13;17.70;;;18.60;99.90;;;;;;5061434;28;20021;-69
2021/08/01 05:18:01;;;;;;;29.75;18.63;;;18.70;99.90;;;;;;5050932;28;20386;-69
2021/08/01 05:20:26;;;;;;;32.40;20.38;;;18.70;99.90;;;;;;5057230;28;20043;-70
2021/08/01 05:22:52;;;;;;;31.52;19.25;;;18.70;99.90;;;;;;5049708;28;20482;-70
2021/08/01 05:25:17;;;;;;;33.33;20.45;;;18.70;99.90;;;;;;5058884;28;20044;-71
2021/08/01 05:27:43;;;;;;;35.00;21.33;;;18.80;99.90;;;;;;5055007;28;20119;-70
2021/08/01 05:30:09;;;;;;;36.63;22.48;;;18.70;99.90;;;;;;5042431;28;20029;-69
2021/08/01 05:32:35;;;;;;;33.72;24.05;;;18.70;99.90;;;;;;5048044;28;20059;-69
2021/08/01 05:35:00;;;;;;;38.90;22.90;;;18.60;99.90;;;;;;5050728;28;20056;-69
2021/08/01 05:37:26;;;;;;;35.92;21.73;;;18.70;99.90;;;;;;5051238;28;20028;-69
2021/08/01 05:39:52;;;;;;;36.28;22.73;;;18.60;99.90;;;;;;5048785;28;20021;-69
2021/08/01 05:42:18;;;;;;;33.47;24.05;;;18.70;99.90;;;;;;5049824;28;20033;-70
2021/08/01 05:44:44;;;;;;;36.65;22.92;;;18.70;99.90;;;;;;5049189;28;20032;-72
2021/08/01 05:47:10;;;;;;;36.53;23.15;;;18.60;99.90;;;;;;5051237;28;20025;-72
2021/08/01 05:49:35;;;;;;;33.60;17.92;;;18.70;99.90;;;;;;5046653;28;20040;-72
2021/08/01 05:52:01;;;;;;;30.52;19.15;;;18.50;99.90;;;;;;5045632;28;20555;-72
2021/08/01 05:54:27;;;;;;;28.35;18.08;;;18.50;99.90;;;;;;5048076;28;20481;-72
2021/08/01 05:56:53;;;;;;;31.05;16.60;;;18.60;99.90;;;;;;5052169;28;20041;-70
2021/08/01 05:59:18;;;;;;;31.35;17.52;;;18.50;99.90;;;;;;5060898;28;20033;-72
2021/08/01 06:01:44;;;;;;;23.95;14.43;;;18.50;99.90;;;;;;5060540;28;20471;-72
2021/08/01 06:04:09;;;;;;;22.40;13.48;;;18.50;99.90;;;;;;5051188;28;20028;-72
2021/08/01 06:06:35;;;;;;;19.67;12.50;;;18.40;99.90;;;;;;5064600;28;20068;-72
2021/08/01 06:09:02;;;;;;;21.73;12.57;;;18.40;99.90;;;;;;5058024;28;20051;-73
2021/08/01 06:11:28;;;;;;;19.00;12.25;;;18.40;99.90;;;;;;5060327;28;20032;-73
2021/08/01 06:13:54;;;;;;;21.70;12.93;;;18.50;99.90;;;;;;5059172;28;20024;-72
2021/08/01 06:16:20;;;;;;;21.90;12.02;;;18.50;99.90;;;;;;5059209;28;20159;-73
2021/08/01 06:18:46;;;;;;;22.38;12.65;;;18.50;99.90;;;;;;5048419;28;20025;-72
2021/08/01 06:21:18;;;;;;;22.05;13.07;;;18.50;99.90;;;;;;5054531;28;20043;-72
2021/08/01 06:23:48;;;;;;;16.38;11.90;;;18.50;99.90;;;;;;5055170;28;20029;-73
2021/08/01 06:26:15;;;;;;;18.20;11.45;;;18.50;99.90;;;;;;5053594;28;20045;-73
2021/08/01 06:28:41;;;;;;;18.38;12.50;;;18.60;99.90;;;;;;5053437;28;20021;-72
2021/08/01 06:31:08;;;;;;;19.92;11.30;;;18.50;99.90;;;;;;5061059;28;20033;-73
2021/08/01 06:33:34;;;;;;;17.35;10.93;;;18.60;99.90;;;;;;5049046;28;20016;-73
2021/08/01 06:36:04;;;;;;;22.48;13.52;;;18.60;99.90;;;;;;5044952;28;20040;-72
2021/08/01 06:38:30;;;;;;;21.73;13.38;;;18.50;99.90;;;;;;5042489;28;20025;-73
2021/08/01 06:40:56;;;;;;;22.92;14.65;;;18.40;99.90;;;;;;5049983;28;20082;-73
2021/08/01 06:43:22;;;;;;;24.65;14.65;;;18.40;99.90;;;;;;5054771;28;20377;-73
2021/08/01 06:45:48;;;;;;;21.45;13.13;;;18.50;99.90;;;;;;5052778;28;20483;-74
2021/08/01 06:48:13;;;;;;;23.88;13.50;;;18.60;99.90;;;;;;5053337;28;20040;-73
2021/08/01 06:50:39;;;;;;;21.48;13.65;;;18.60;99.90;;;;;;5051658;28;20028;-73
2021/08/01 06:53:05;;;;;;;19.65;12.73;;;18.60;99.90;;;;;;5043677;28;20021;-73
2021/08/01 06:55:30;;;;;;;27.77;14.02;;;18.60;99.90;;;;;;5057707;28;20401;-73
2021/08/01 06:57:56;;;;;;;20.80;12.30;;;18.60;99.90;;;;;;5046221;28;20029;-73
2021/08/01 07:00:22;;;;;;;20.00;11.60;;;18.60;99.90;;;;;;5053494;28;20030;-73
2021/08/01 07:02:55;;;;;;;21.42;12.02;;;18.50;99.90;;;;;;5059881;28;20033;-74
2021/08/01 07:05:22;;;;;;;17.90;12.40;;;18.50;99.90;;;;;;5047150;28;20013;-72
2021/08/01 07:07:47;;;;;;;19.83;12.93;;;18.50;99.90;;;;;;5046545;28;20035;-73
2021/08/01 07:10:13;;;;;;;19.25;10.85;;;18.50;99.90;;;;;;5047918;28;20112;-73
2021/08/01 07:12:41;;;;;;;21.88;13.90;;;18.50;99.90;;;;;;5049496;28;20037;-74
2021/08/01 07:15:22;;;;;;;24.38;13.57;;;18.50;99.90;;;;;;5053508;28;20033;-73
2021/08/01 07:17:48;;;;;;;22.88;13.02;;;18.50;99.90;;;;;;5050943;28;20382;-73
2021/08/01 07:20:14;;;;;;;30.58;11.60;;;18.50;99.90;;;;;;5052112;28;20658;-70
2021/08/01 07:22:40;;;;;;;18.52;10.43;;;18.50;99.90;;;;;;5048608;28;20538;-71
2021/08/01 07:25:07;;;;;;;18.35;11.38;;;18.50;99.90;;;;;;5054604;28;20029;-73
2021/08/01 07:27:33;;;;;;;16.83;10.10;;;18.40;99.90;;;;;;5049320;28;20033;-72
2021/08/01 07:29:59;;;;;;;16.02;10.05;;;18.40;99.90;;;;;;5049166;28;20028;-73
2021/08/01 07:32:24;;;;;;;15.50;9.50;;;18.40;99.90;;;;;;5053352;28;20021;-73
2021/08/01 07:34:50;;;;;;;16.52;8.70;;;18.40;99.90;;;;;;5049134;28;20025;-72
2021/08/01 07:37:17;;;;;;;15.13;9.38;;;18.50;99.90;;;;;;5048037;28;20041;-72
2021/08/01 07:39:43;;;;;;;15.55;8.70;;;18.60;99.90;;;;;;5049400;28;20044;-72
2021/08/01 07:42:09;;;;;;;16.90;7.88;;;18.70;99.90;;;;;;5050798;28;20044;-72
2021/08/01 07:44:45;;;;;;;18.45;7.75;;;18.50;99.90;;;;;;5048400;28;20012;-72
2021/08/01 07:47:12;;;;;;;11.45;7.22;;;18.70;99.90;;;;;;5047326;28;20029;-72
2021/08/01 07:49:38;;;;;;;12.18;7.10;;;18.80;99.90;;;;;;5049147;28;20464;-71
2021/08/01 07:52:04;;;;;;;12.52;7.45;;;18.90;99.90;;;;;;5051746;28;20018;-71
2021/08/01 07:54:30;;;;;;;13.52;7.60;;;18.90;99.90;;;;;;5057862;28;20485;-72
2021/08/01 07:56:56;;;;;;;13.32;7.30;;;19.00;99.90;;;;;;5053414;28;20036;-72
2021/08/01 07:59:22;;;;;;;9.65;7.90;;;18.90;99.90;;;;;;5052208;28;20025;-72
2021/08/01 08:01:47;;;;;;;10.90;7.90;;;19.00;99.90;;;;;;5050941;28;20017;-69
2021/08/01 08:04:13;;;;;;;12.73;7.90;;;19.00;99.90;;;;;;5054929;28;20545;-69
2021/08/01 08:06:38;;;;;;;9.13;7.45;;;19.10;99.90;;;;;;5050811;28;20033;-70
2021/08/01 08:09:05;;;;;;;14.23;8.02;;;19.20;99.90;;;;;;5051152;28;20043;-72
2021/08/01 08:11:31;;;;;;;13.77;8.70;;;19.30;99.90;;;;;;5050974;28;20029;-72
2021/08/01 08:13:56;;;;;;;14.20;8.45;;;19.10;99.90;;;;;;5049535;28;20111;-71
2021/08/01 08:16:22;;;;;;;11.73;8.35;;;19.20;99.90;;;;;;5055817;28;20046;-73
2021/08/01 08:18:50;;;;;;;14.95;9.50;;;19.30;99.90;;;;;;5056687;28;20017;-72
2021/08/01 08:21:16;;;;;;;17.73;10.02;;;19.30;99.90;;;;;;5055301;28;20401;-71
2021/08/01 08:23:42;;;;;;;20.13;10.23;;;19.30;99.90;;;;;;5051552;28;20021;-73
2021/08/01 08:26:07;;;;;;;15.40;10.05;;;19.30;99.90;;;;;;5058152;28;20067;-71
2021/08/01 08:28:33;;;;;;;19.30;11.30;;;19.20;99.90;;;;;;5056520;28;20021;-69
2021/08/01 08:30:59;;;;;;;16.40;9.98;;;19.20;99.90;;;;;;5048082;28;20025;-69
2021/08/01 08:33:25;;;;;;;18.27;11.63;;;19.10;99.90;;;;;;5054070;28;20026;-69
2021/08/01 08:35:51;;;;;;;19.80;12.00;;;19.30;99.90;;;;;;5056824;28;20424;-69
2021/08/01 08:38:16;;;;;;;15.38;10.50;;;19.50;99.90;;;;;;5042900;28;20482;-69
2021/08/01 08:40:42;;;;;;;16.83;10.27;;;19.50;99.90;;;;;;5059188;28;20047;-69
2021/08/01 08:43:09;;;;;;;18.58;10.57;;;19.70;99.90;;;;;;5066415;28;20373;-69
2021/08/01 08:45:35;;;;;;;19.38;10.20;;;19.80;99.90;;;;;;5048458;28;20481;-69
2021/08/01 08:48:01;;;;;;;21.25;11.75;;;19.70;99.90;;;;;;5053124;28;20036;-69
2021/08/01 08:50:27;;;;;;;22.42;13.25;;;19.80;99.90;;;;;;5056244;28;20055;-68
2021/08/01 08:53:02;;;;;;;17.52;10.07;;;19.70;99.90;;;;;;5053840;28;20067;-69
2021/08/01 08:55:29;;;;;;;20.83;12.20;;;19.70;99.90;;;;;;5060241;28;20033;-69
2021/08/01 08:58:02;;;;;;;18.90;12.00;;;19.60;99.90;;;;;;5049203;28;20020;-69
2021/08/01 09:00:29;;;;;;;20.15;12.32;;;19.60;99.90;;;;;;5054624;28;20522;-69
2021/08/01 09:02:55;;;;;;;22.65;12.95;;;19.70;99.90;;;;;;5055675;28;20384;-69
2021/08/01 09:05:21;;;;;;;22.48;11.40;;;19.80;99.90;;;;;;5055281;28;20032;-69
2021/08/01 09:07:47;;;;;;;21.52;12.18;;;19.90;99.90;;;;;;5057547;28;20182;-69
2021/08/01 09:10:12;;;;;;;16.83;11.45;;;19.90;99.90;;;;;;5044244;28;20536;-69
2021/08/01 09:12:43;;;;;;;18.00;11.80;;;19.90;99.90;;;;;;5056999;28;20489;-69
2021/08/01 09:15:10;;;;;;;18.75;11.10;;;19.90;99.90;;;;;;5061172;28;20059;-69
2021/08/01 09:17:37;;;;;;;18.10;12.38;;;19.90;99.90;;;;;;5029737;28;20053;-69
2021/08/01 09:20:19;;;;;;;19.65;13.18;;;19.90;99.90;;;;;;5058924;28;20024;-69
2021/08/01 09:23:00;;;;;;;19.60;12.32;;;20.00;99.90;;;;;;5043210;28;20799;-69
2021/08/01 09:25:28;;;;;;;22.35;13.00;;;20.00;99.90;;;;;;5056156;28;20028;-69
2021/08/01 09:28:18;;;;;;;20.88;13.10;;;20.10;99.90;;;;;;5054909;28;20031;-69
2021/08/01 09:30:55;;;;;;;19.77;13.35;;;20.00;99.90;;;;;;5051962;28;20067;-69
2021/08/01 09:33:37;;;;;;;19.15;13.48;;;20.10;99.90;;;;;;5049985;28;20075;-69
2021/08/01 09:36:13;;;;;;;25.45;14.60;;;20.00;99.90;;;;;;5045687;28;20037;-69
2021/08/01 09:38:48;;;;;;;25.42;13.85;;;20.20;99.90;;;;;;5048128;28;20029;-69
2021/08/01 09:41:17;;;;;;;22.27;13.63;;;20.30;99.90;;;;;;5054135;28;20036;-69
2021/08/01 09:43:52;;;;;;;20.63;14.52;;;20.10;99.90;;;;;;5052930;28;20013;-70
2021/08/01 09:46:18;;;;;;;18.98;14.43;;;20.30;99.90;;;;;;5043441;28;20032;-69
2021/08/01 09:48:44;;;;;;;21.38;14.48;;;20.30;99.90;;;;;;5051545;28;20013;-69
2021/08/01 09:51:11;;;;;;;22.58;13.43;;;20.40;99.90;;;;;;5048008;28;20021;-69
2021/08/01 09:53:39;;;;;;;24.38;15.10;;;20.30;99.90;;;;;;5049061;28;20021;-69
2021/08/01 09:56:18;;;;;;;19.52;13.38;;;20.30;99.90;;;;;;5051364;28;20037;-69
2021/08/01 09:58:45;;;;;;;20.70;13.98;;;20.30;99.90;;;;;;5050572;28;20502;-69
2021/08/01 10:01:12;;;;;;;20.50;13.82;;;20.30;99.90;;;;;;5055568;28;20083;-69
2021/08/01 10:03:40;;;;;;;22.35;13.50;;;20.30;99.90;;;;;;5056337;28;20024;-69
2021/08/01 10:06:14;;;;;;;23.42;13.82;;;20.40;99.90;;;;;;5050686;28;20021;-69
2021/08/01 10:08:57;;;;;;;23.35;14.85;;;20.60;99.90;;;;;;5046781;28;20064;-74
2021/08/01 10:11:25;;;;;;;26.50;15.23;;;20.60;99.90;;;;;;5047470;28;20032;-69
2021/08/01 10:13:55;;;;;;;19.10;13.82;;;20.60;99.90;;;;;;5051281;28;20127;-69
2021/08/01 10:16:21;;;;;;;24.10;14.57;;;20.70;99.90;;;;;;5048079;28;20037;-69
2021/08/01 10:18:49;;;;;;;21.70;13.93;;;20.80;99.90;;;;;;5063169;28;20027;-73
2021/08/01 10:21:20;;;;;;;22.48;13.30;;;20.70;99.90;;;;;;5057794;28;20363;-73
2021/08/01 10:23:51;;;;;;;19.98;12.82;;;20.90;99.90;;;;;;5051313;28;20025;-69
2021/08/01 10:26:19;;;;;;;17.88;12.50;;;21.00;99.90;;;;;;5061922;28;20033;-69
2021/08/01 10:28:54;;;;;;;20.40;12.20;;;21.00;99.90;;;;;;5053677;28;20025;-68
2021/08/01 10:31:32;;;;;;;21.45;13.95;;;21.00;99.90;;;;;;5061148;28;20508;-69
2021/08/01 10:34:06;;;;;;;21.27;13.65;;;21.00;99.90;;;;;;5047541;28;20022;-69
2021/08/01 10:36:34;;;;;;;23.63;13.23;;;21.00;99.90;;;;;;5057309;28;20067;-69
2021/08/01 10:39:04;;;;;;;18.35;12.40;;;21.20;99.90;;;;;;5054358;28;20035;-68
2021/08/01 10:41:32;;;;;;;22.00;12.60;;;21.30;99.90;;;;;;5056379;28;20029;-68
2021/08/01 10:44:07;;;;;;;19.67;13.07;;;21.30;99.90;;;;;;5056379;28;20028;-69
2021/08/01 10:46:34;;;;;;;18.02;12.07;;;21.20;99.90;;;;;;5052014;28;20358;-69
2021/08/01 10:49:03;;;;;;;18.63;13.38;;;21.30;99.90;;;;;;5064119;28;20023;-69
2021/08/01 10:51:33;;;;;;;19.30;13.05;;;21.70;99.90;;;;;;5062488;28;20036;-69
2021/08/01 10:54:20;;;;;;;21.33;13.02;;;22.00;99.90;;;;;;5061645;28;20021;-69
2021/08/01 10:56:47;;;;;;;16.17;11.30;;;22.20;99.90;;;;;;5057956;28;20044;-69
2021/08/01 10:59:43;;;;;;;17.98;11.40;;;22.20;99.90;;;;;;5064982;28;20104;-70
2021/08/01 11:02:21;;;;;;;16.05;11.45;;;22.20;99.90;;;;;;5051345;28;20051;-69
2021/08/01 11:04:50;;;;;;;15.93;11.30;;;22.20;99.90;;;;;;5054012;28;20508;-69
2021/08/01 11:07:27;;;;;;;18.95;11.70;;;22.00;99.90;;;;;;5054573;28;20595;-69
2021/08/01 11:10:13;;;;;;;16.42;11.35;;;22.00;99.90;;;;;;5046914;28;20504;-69
2021/08/01 11:12:42;;;;;;;18.20;10.93;;;21.90;99.90;;;;;;5059692;28;20053;-69
2021/08/01 11:15:09;;;;;;;11.57;9.30;;;21.90;99.90;;;;;;5059915;28;20033;-69
2021/08/01 11:17:41;;;;;;;18.08;11.77;;;21.90;99.90;;;;;;5058085;28;20120;-69
2021/08/01 11:20:15;;;;;;;17.25;9.75;;;22.10;99.90;;;;;;5054264;28;20021;-69
2021/08/01 11:22:44;;;;;;;12.15;9.63;;;22.20;99.90;;;;;;5057298;28;20067;-69
2021/08/01 11:25:23;;;;;;;12.95;9.43;;;22.50;99.90;;;;;;5051648;28;20041;-69
2021/08/01 11:28:08;;;;;;;12.20;9.35;;;22.50;99.90;;;;;;5058636;28;20083;-69
2021/08/01 11:30:58;;;;;;;10.88;9.75;;;22.40;99.90;;;;;;5047288;28;20035;-69
2021/08/01 11:33:41;;;;;;;12.75;9.82;;;22.20;99.90;;;;;;5057092;28;20024;-70
2021/08/01 11:36:18;;;;;;;9.15;5.25;;;22.00;99.90;;;;;;5055639;28;20036;-73
2021/08/01 11:38:59;;;;;;;8.05;5.30;;;21.50;99.90;;;;;;5049186;28;20430;-75
2021/08/01 11:41:27;;;;;;;7.30;4.30;;;21.30;99.90;;;;;;5057032;28;20524;-72
2021/08/01 11:44:11;;;;;;;11.40;5.40;;;21.00;99.90;;;;;;5060174;28;20215;-72
2021/08/01 11:46:50;;;;;;;6.28;2.20;;;20.80;99.90;;;;;;5051085;28;20030;-73
2021/08/01 11:49:26;;;;;;;4.78;2.15;;;20.60;99.90;;;;;;5060953;28;20059;-73
2021/08/01 11:51:53;;;;;;;4.65;2.03;;;20.50;99.90;;;;;;5054414;28;20031;-71
2021/08/01 11:54:29;;;;;;;6.43;2.08;;;20.40;99.90;;;;;;5049423;28;20060;-71
2021/08/01 11:57:01;;;;;;;2.97;1.50;;;20.40;99.90;;;;;;5060865;28;20068;-71
2021/08/01 11:59:28;;;;;;;4.20;1.60;;;20.50;99.90;;;;;;5044675;28;20508;-72
2021/08/01 12:01:56;;;;;;;2.75;1.40;;;20.50;99.90;;;;;;5052956;28;20507;-71
2021/08/01 12:04:22;;;;;;;3.67;1.77;;;20.50;99.90;;;;;;5059946;28;20031;-72
2021/08/01 12:06:50;;;;;;;1.92;1.83;;;20.40;99.90;;;;;;5049515;28;20017;-71
2021/08/01 12:09:19;;;;;;;3.08;2.10;;;20.30;99.90;;;;;;5060650;28;21441;-72
2021/08/01 12:11:47;;;;;;;2.47;1.70;;;20.30;99.90;;;;;;5063036;28;20531;-74
2021/08/01 12:14:14;;;;;;;2.17;2.08;;;20.40;99.90;;;;;;5051930;28;20083;-70
2021/08/01 12:16:57;;;;;;;3.45;2.30;;;20.20;99.90;;;;;;5051660;28;20025;-69
2021/08/01 12:19:32;;;;;;;2.30;2.20;;;20.20;99.90;;;;;;5043950;28;20029;-69
2021/08/01 12:22:01;;;;;;;4.22;2.50;;;20.20;99.90;;;;;;5053217;28;20013;-72
2021/08/01 12:24:33;;;;;;;2.90;2.70;;;20.20;99.90;;;;;;5050689;28;20040;-69
2021/08/01 12:27:07;;;;;;;3.03;2.70;;;20.20;99.90;;;;;;5049141;28;20035;-71
2021/08/01 12:29:36;;;;;;;3.70;3.40;;;20.30;99.90;;;;;;5056702;28;20099;-75
2021/08/01 12:32:15;;;;;;;3.75;3.42;;;20.10;99.90;;;;;;5053668;28;20422;-70
2021/08/01 12:34:41;;;;;;;4.45;3.25;;;20.20;99.90;;;;;;5058413;28;20028;-71
2021/08/01 12:37:07;;;;;;;4.75;4.35;;;20.20;99.90;;;;;;5058176;28;20365;-71
2021/08/01 12:39:41;;;;;;;6.95;4.70;;;20.30;99.90;;;;;;5063100;28;20016;-75
2021/08/01 12:42:08;;;;;;;5.60;4.72;;;20.30;99.90;;;;;;5060413;28;20025;-75